createdAt,value
2022-08-17T00:01:17.390Z,37.60
2022-08-17T00:03:53.269Z,35.00
2022-08-17T00:06:29.302Z,35.05
2022-08-17T00:09:05.239Z,39.95
2022-08-17T00:11:41.547Z,28.52
2022-08-17T00:14:18.399Z,31.63
2022-08-17T00:16:57.382Z,35.65
2022-08-17T00:19:30.005Z,41.37
2022-08-17T00:22:35.179Z,34.20
2022-08-17T00:24:55.110Z,29.20
2022-08-17T00:27:27.177Z,27.98
2022-08-17T00:29:59.364Z,32.70
2022-08-17T00:33:11.987Z,32.95
2022-08-17T00:35:34.960Z,31.55
2022-08-17T00:38:09.937Z,32.72
2022-08-17T00:40:59.299Z,34.17
2022-08-17T00:43:44.364Z,34.22
2022-08-17T00:46:25.174Z,38.00
2022-08-17T00:48:57.420Z,36.42
2022-08-17T00:51:46.716Z,40.15
2022-08-17T00:54:41.963Z,40.88
2022-08-17T00:57:25.390Z,35.80
2022-08-17T01:00:16.732Z,40.15
2022-08-17T01:02:49.521Z,35.30
2022-08-17T01:05:27.489Z,32.70
2022-08-17T01:08:02.722Z,39.33
2022-08-17T01:10:59.735Z,38.60
2022-08-17T01:13:44.421Z,38.85
2022-08-17T01:16:28.445Z,36.92
2022-08-17T01:19:16.709Z,36.63
2022-08-17T01:22:11.643Z,42.53
2022-08-17T01:24:49.798Z,44.05
2022-08-17T01:27:22.733Z,44.83
2022-08-17T01:30:01.776Z,39.25
2022-08-17T01:32:34.270Z,41.17
2022-08-17T01:35:08.361Z,38.67
2022-08-17T01:37:43.270Z,36.85
2022-08-17T01:40:23.858Z,41.25
2022-08-17T01:43:04.555Z,42.55
2022-08-17T01:45:45.940Z,45.75
2022-08-17T01:48:21.917Z,42.03
2022-08-17T01:50:53.930Z,44.75
2022-08-17T01:53:40.879Z,45.65
2022-08-17T01:56:17.461Z,43.75
2022-08-17T01:58:49.732Z,42.05
2022-08-17T02:01:27.198Z,45.38
2022-08-17T02:04:01.642Z,40.00
2022-08-17T02:06:47.125Z,44.63
2022-08-17T02:09:29.742Z,44.60
2022-08-17T02:12:37.692Z,44.28
2022-08-17T02:14:55.914Z,42.50
2022-08-17T02:17:28.178Z,42.35
2022-08-17T02:20:00.458Z,45.20
2022-08-17T02:22:32.458Z,46.83
2022-08-17T02:25:09.430Z,47.88
2022-08-17T02:27:41.386Z,46.47
2022-08-17T02:31:02.094Z,44.05
2022-08-17T02:33:09.255Z,50.17
2022-08-17T02:35:43.003Z,45.42
2022-08-17T02:38:15.431Z,44.38
2022-08-17T02:40:47.677Z,50.45
2022-08-17T02:43:19.807Z,48.67
2022-08-17T02:45:51.934Z,48.35
2022-08-17T02:48:30.965Z,47.88
2022-08-17T02:51:03.871Z,43.08
2022-08-17T02:53:36.335Z,47.50
2022-08-17T02:56:08.386Z,48.42
2022-08-17T02:58:40.399Z,59.80
2022-08-17T03:01:13.283Z,50.70
2022-08-17T03:03:45.409Z,52.50
2022-08-17T03:06:17.493Z,56.35
2022-08-17T03:08:49.879Z,56.50
2022-08-17T03:11:22.110Z,50.72
2022-08-17T03:13:54.239Z,59.10
2022-08-17T03:16:26.606Z,58.80
2022-08-17T03:18:58.679Z,55.28
2022-08-17T03:21:30.715Z,66.15
2022-08-17T03:24:08.779Z,59.97
2022-08-17T03:26:41.203Z,59.80
2022-08-17T03:29:18.967Z,69.15
2022-08-17T03:31:50.958Z,64.47
2022-08-17T03:34:22.933Z,58.92
2022-08-17T03:36:55.133Z,66.45
2022-08-17T03:39:27.179Z,64.18
2022-08-17T03:42:09.842Z,59.83
2022-08-17T03:45:03.614Z,61.60
2022-08-17T03:47:53.976Z,64.30
2022-08-17T03:56:26.265Z,65.10
2022-08-17T03:58:58.366Z,62.80
2022-08-17T04:01:30.486Z,68.60
2022-08-17T04:04:02.497Z,74.57
2022-08-17T04:06:34.538Z,63.78
2022-08-17T04:09:07.238Z,66.07
2022-08-17T04:11:39.898Z,64.72
2022-08-17T04:14:12.023Z,70.97
2022-08-17T04:16:44.054Z,67.07
2022-08-17T04:19:16.195Z,67.60
2022-08-17T04:21:48.175Z,71.60
2022-08-17T04:24:20.142Z,64.88
2022-08-17T04:26:54.564Z,64.43
2022-08-17T04:29:26.776Z,80.22
2022-08-17T04:32:23.093Z,69.80
2022-08-17T04:35:10.763Z,76.43
2022-08-17T04:37:42.726Z,71.53
2022-08-17T04:40:33.679Z,77.18
2022-08-17T04:43:19.397Z,75.28
2022-08-17T04:46:05.152Z,69.65
2022-08-17T04:48:42.786Z,72.45
2022-08-17T04:51:28.107Z,80.30
2022-08-17T04:54:08.967Z,72.63
2022-08-17T04:56:42.209Z,73.97
2022-08-17T04:59:18.716Z,78.72
2022-08-17T05:01:52.335Z,79.35
2022-08-17T05:04:33.626Z,75.28
2022-08-17T05:07:07.576Z,73.32
2022-08-17T05:09:39.840Z,74.82
2022-08-17T05:12:11.916Z,78.13
2022-08-17T05:14:43.976Z,76.93
2022-08-17T05:17:16.071Z,74.43
2022-08-17T05:19:51.874Z,70.50
2022-08-17T05:22:24.133Z,79.90
2022-08-17T05:24:56.143Z,73.20
2022-08-17T05:27:32.877Z,64.50
2022-08-17T05:30:08.253Z,71.75
2022-08-17T05:32:40.540Z,65.15
2022-08-17T05:35:12.606Z,71.63
2022-08-17T05:37:44.678Z,76.20
2022-08-17T05:40:17.955Z,71.13
2022-08-17T05:42:50.401Z,71.22
2022-08-17T05:45:39.910Z,78.68
2022-08-17T05:48:15.416Z,66.80
2022-08-17T05:51:10.076Z,75.20
2022-08-17T05:53:41.967Z,61.45
2022-08-17T05:56:37.771Z,67.47
2022-08-17T05:59:41.713Z,65.53
2022-08-17T06:02:23.355Z,55.15
2022-08-17T06:05:15.248Z,69.20
2022-08-17T06:07:59.041Z,72.75
2022-08-17T06:11:19.786Z,63.03
2022-08-17T06:14:34.392Z,57.97
2022-08-17T06:17:16.016Z,56.55
2022-08-17T06:19:56.702Z,59.90
2022-08-17T06:22:34.227Z,52.97
2022-08-17T06:25:16.283Z,55.17
2022-08-17T06:27:56.049Z,59.47
2022-08-17T06:30:57.612Z,48.60
2022-08-17T06:33:36.763Z,55.45
2022-08-17T06:36:25.319Z,64.28
2022-08-17T06:39:18.661Z,58.08
2022-08-17T06:42:00.845Z,47.33
2022-08-17T06:44:52.132Z,48.83
2022-08-17T06:47:34.386Z,50.88
2022-08-17T06:50:21.195Z,56.15
2022-08-17T06:52:59.559Z,49.42
2022-08-17T06:56:05.418Z,49.85
2022-08-17T06:58:41.020Z,44.13
2022-08-17T07:01:19.706Z,48.90
2022-08-17T07:04:11.608Z,39.63
2022-08-17T07:07:00.125Z,39.75
2022-08-17T07:09:36.385Z,39.13
2022-08-17T07:12:20.114Z,34.70
2022-08-17T07:15:16.817Z,34.63
2022-08-17T07:17:49.050Z,42.30
2022-08-17T07:20:22.798Z,42.53
2022-08-17T07:23:05.685Z,42.88
2022-08-17T07:25:37.705Z,38.47
2022-08-17T07:28:09.743Z,35.75
2022-08-17T07:30:53.597Z,32.95
2022-08-17T07:33:30.126Z,34.47
2022-08-17T07:36:02.419Z,34.05
2022-08-17T07:38:35.685Z,29.33
2022-08-17T07:41:10.794Z,33.05
2022-08-17T07:43:42.706Z,31.42
2022-08-17T07:46:54.037Z,33.72
2022-08-17T07:49:32.130Z,35.40
2022-08-17T07:52:50.916Z,30.92
2022-08-17T07:55:31.875Z,28.67
2022-08-17T07:58:04.085Z,29.55
2022-08-17T08:00:37.238Z,24.45
2022-08-17T08:03:27.248Z,19.10
2022-08-17T08:06:03.107Z,23.58
2022-08-17T08:08:42.946Z,22.58
2022-08-17T08:11:29.540Z,26.08
2022-08-17T08:14:28.624Z,19.65
2022-08-17T08:17:09.403Z,25.15
2022-08-17T08:19:41.573Z,18.95
2022-08-17T08:22:23.900Z,18.10
2022-08-17T08:25:07.416Z,19.48
2022-08-17T08:28:03.639Z,22.70
2022-08-17T08:30:44.785Z,16.75
2022-08-17T08:33:41.663Z,14.23
2022-08-17T08:37:14.761Z,16.35
2022-08-17T08:40:11.049Z,12.82
2022-08-17T08:43:10.363Z,13.23
2022-08-17T08:46:02.324Z,13.80
2022-08-17T08:48:56.878Z,14.45
2022-08-17T08:51:46.543Z,12.43
2022-08-17T08:55:07.748Z,11.60
2022-08-17T08:58:06.231Z,13.50
2022-08-17T09:00:46.451Z,17.65
2022-08-17T09:03:52.910Z,10.50
2022-08-17T09:06:47.035Z,11.93
2022-08-17T09:10:15.314Z,9.05
2022-08-17T09:13:22.131Z,16.02
2022-08-17T09:16:05.581Z,11.50
2022-08-17T09:19:01.850Z,13.70
2022-08-17T09:21:48.360Z,8.33
2022-08-17T09:24:41.809Z,10.70
2022-08-17T09:27:25.746Z,10.43
2022-08-17T09:30:08.380Z,13.15
2022-08-17T09:32:45.925Z,8.02
2022-08-17T09:35:20.268Z,9.77
2022-08-17T09:38:30.336Z,9.77
2022-08-17T09:41:14.243Z,6.13
2022-08-17T09:44:01.089Z,9.23
2022-08-17T09:46:43.601Z,9.20
2022-08-17T09:49:28.393Z,9.40
2022-08-17T09:52:20.374Z,10.00
2022-08-17T09:54:55.390Z,7.82
2022-08-17T09:57:57.492Z,7.70
2022-08-17T10:00:37.962Z,7.55
2022-08-17T10:03:24.270Z,6.30
2022-08-17T10:06:21.773Z,3.97
2022-08-17T10:09:06.496Z,4.43
2022-08-17T10:12:12.906Z,8.13
2022-08-17T10:15:09.774Z,10.02
2022-08-17T10:18:07.507Z,4.50
2022-08-17T10:21:20.765Z,16.05
2022-08-17T10:24:41.423Z,5.38
2022-08-17T10:27:49.173Z,4.85
2022-08-17T10:30:29.476Z,5.40
2022-08-17T10:33:15.497Z,8.32
2022-08-17T10:36:03.061Z,10.15
2022-08-17T10:38:46.201Z,8.20
2022-08-17T10:41:44.029Z,4.57
2022-08-17T10:44:41.112Z,5.75
2022-08-17T10:47:17.600Z,5.40
2022-08-17T10:49:56.068Z,9.35
2022-08-17T10:52:27.970Z,6.20
2022-08-17T10:55:08.805Z,4.45
2022-08-17T10:57:44.941Z,4.30
2022-08-17T11:00:27.963Z,5.43
2022-08-17T11:03:01.259Z,10.55
2022-08-17T11:05:52.404Z,6.30
2022-08-17T11:08:58.796Z,5.20
2022-08-17T11:12:06.876Z,5.80
2022-08-17T11:14:49.553Z,4.53
2022-08-17T11:18:01.661Z,4.30
2022-08-17T11:21:23.239Z,4.45
2022-08-17T11:24:18.467Z,4.65
2022-08-17T11:27:27.783Z,8.98
2022-08-17T11:30:07.202Z,8.70
2022-08-17T11:32:54.707Z,7.68
2022-08-17T11:35:51.609Z,6.10
2022-08-17T11:38:59.926Z,7.35
2022-08-17T11:42:25.605Z,5.03
2022-08-17T11:45:49.800Z,4.78
2022-08-17T11:49:12.089Z,6.22
2022-08-17T11:52:01.177Z,15.77
2022-08-17T11:54:48.430Z,4.32
2022-08-17T11:57:26.531Z,7.20
2022-08-17T12:00:11.972Z,4.03
2022-08-17T12:02:48.510Z,5.93
2022-08-17T12:05:27.416Z,10.25
2022-08-17T12:08:11.147Z,6.17
2022-08-17T12:11:08.783Z,6.22
2022-08-17T12:13:56.453Z,8.27
2022-08-17T12:16:28.574Z,4.25
2022-08-17T12:19:03.519Z,5.10
2022-08-17T12:21:58.068Z,5.70
2022-08-17T12:24:42.003Z,11.48
2022-08-17T12:28:06.201Z,7.20
2022-08-17T12:30:39.395Z,7.22
2022-08-17T12:33:25.375Z,13.98
2022-08-17T12:36:07.583Z,5.30
2022-08-17T12:38:39.723Z,7.53
2022-08-17T12:41:27.869Z,6.57
2022-08-17T12:44:22.053Z,6.40
2022-08-17T12:46:59.658Z,6.25
2022-08-17T12:49:42.377Z,7.85
2022-08-17T12:52:28.917Z,5.43
2022-08-17T12:55:05.871Z,8.65
2022-08-17T12:57:51.416Z,4.90
2022-08-17T13:00:31.901Z,5.70
2022-08-17T13:03:16.660Z,7.60
2022-08-17T13:06:06.384Z,6.05
2022-08-17T13:08:46.124Z,5.43
2022-08-17T13:11:25.077Z,8.35
2022-08-17T13:14:09.057Z,4.85
2022-08-17T13:16:52.416Z,5.70
2022-08-17T13:19:40.553Z,4.85
2022-08-17T13:22:13.350Z,10.25
2022-08-17T13:25:05.544Z,6.25
2022-08-17T13:27:42.931Z,4.28
2022-08-17T13:30:24.422Z,5.45
2022-08-17T13:32:57.998Z,5.63
2022-08-17T13:35:50.231Z,7.55
2022-08-17T13:38:45.867Z,5.30
2022-08-17T13:41:37.018Z,6.22
2022-08-17T13:44:30.308Z,9.10
2022-08-17T13:47:04.642Z,7.93
2022-08-17T13:49:48.526Z,8.30
2022-08-17T13:52:41.150Z,6.93
2022-08-17T13:55:20.724Z,7.47
2022-08-17T13:58:06.658Z,4.85
2022-08-17T14:00:40.435Z,7.43
2022-08-17T14:03:12.638Z,5.05
2022-08-17T14:05:46.155Z,6.55
2022-08-17T14:08:20.799Z,5.68
2022-08-17T14:10:58.813Z,6.38
2022-08-17T14:13:32.360Z,5.47
2022-08-17T14:16:04.771Z,6.03
2022-08-17T14:18:56.687Z,6.05
2022-08-17T14:21:29.418Z,6.07
2022-08-17T14:24:01.428Z,5.75
2022-08-17T14:26:33.450Z,7.10
2022-08-17T14:29:05.528Z,7.30
2022-08-17T14:31:48.490Z,6.70
2022-08-17T14:34:25.731Z,8.07
2022-08-17T14:36:57.813Z,10.13
2022-08-17T14:39:29.893Z,5.68
2022-08-17T14:42:02.120Z,5.85
2022-08-17T14:44:34.215Z,5.57
2022-08-17T14:47:12.365Z,8.57
2022-08-17T14:49:47.515Z,8.20
2022-08-17T14:52:21.991Z,4.28
2022-08-17T14:54:54.105Z,6.18
2022-08-17T14:57:34.493Z,6.45
2022-08-17T15:00:08.427Z,6.22
2022-08-17T15:02:54.308Z,6.97
2022-08-17T15:05:34.522Z,4.68
2022-08-17T15:08:07.840Z,4.68
2022-08-17T15:10:39.843Z,4.88
2022-08-17T15:13:23.816Z,5.72
2022-08-17T15:15:56.209Z,5.93
2022-08-17T15:18:29.663Z,5.38
2022-08-17T15:21:05.158Z,6.30
2022-08-17T15:23:39.795Z,5.65
2022-08-17T15:26:12.129Z,8.75
2022-08-17T15:28:44.576Z,5.72
2022-08-17T15:31:31.848Z,5.40
2022-08-17T15:34:05.436Z,4.47
2022-08-17T15:36:49.180Z,3.72
2022-08-17T15:39:22.200Z,5.50
2022-08-17T15:41:58.564Z,10.23
2022-08-17T15:44:34.795Z,5.95
2022-08-17T15:47:07.248Z,7.68
2022-08-17T15:49:40.924Z,6.00
2022-08-17T15:52:25.930Z,7.63
2022-08-17T15:55:00.783Z,4.70
2022-08-17T15:57:33.427Z,6.05
2022-08-17T16:00:08.752Z,7.80
2022-08-17T16:03:45.668Z,6.78
2022-08-17T16:05:33.749Z,6.80
2022-08-17T16:08:05.809Z,8.02
2022-08-17T16:10:38.235Z,7.32
2022-08-17T16:13:17.663Z,10.23
2022-08-17T16:18:33.705Z,6.70
2022-08-17T16:21:25.819Z,7.75
2022-08-17T16:24:03.151Z,8.73
2022-08-17T16:26:36.356Z,7.35
2022-08-17T16:29:08.632Z,10.75
2022-08-17T16:31:42.479Z,12.05
2022-08-17T16:34:17.266Z,6.43
2022-08-17T16:36:54.996Z,8.70
2022-08-17T16:39:33.174Z,7.70
2022-08-17T16:42:24.593Z,6.57
2022-08-17T16:45:05.095Z,9.43
2022-08-17T16:47:38.318Z,7.25
2022-08-17T16:50:14.090Z,11.10
2022-08-17T16:52:49.396Z,7.07
2022-08-17T16:55:22.731Z,10.55
2022-08-17T16:57:54.815Z,8.90
2022-08-17T17:00:31.288Z,11.63
2022-08-17T17:03:19.506Z,8.00
2022-08-17T17:06:09.219Z,10.37
2022-08-17T17:08:51.895Z,7.78
2022-08-17T17:11:34.391Z,8.10
2022-08-17T17:14:34.394Z,6.32
2022-08-17T17:17:36.994Z,7.82
2022-08-17T17:20:23.009Z,4.55
2022-08-17T17:23:32.293Z,7.43
2022-08-17T17:26:39.845Z,8.85
2022-08-17T17:29:20.422Z,7.50
2022-08-17T17:32:21.103Z,4.43
2022-08-17T17:35:02.081Z,5.88
2022-08-17T17:37:35.698Z,4.35
2022-08-17T17:40:21.557Z,4.30
2022-08-17T17:43:05.419Z,3.20
2022-08-17T17:46:27.743Z,2.55
2022-08-17T17:49:01.435Z,4.55
2022-08-17T17:52:03.695Z,4.47
2022-08-17T17:55:09.720Z,4.55
2022-08-17T17:58:01.263Z,4.57
2022-08-17T18:00:54.859Z,8.75
2022-08-17T18:04:05.193Z,12.55
2022-08-17T18:07:15.379Z,5.68
2022-08-17T18:10:13.735Z,5.15
2022-08-17T18:13:46.724Z,7.38
2022-08-17T18:16:20.281Z,7.50
2022-08-17T18:18:53.554Z,5.47
2022-08-17T18:21:35.962Z,5.55
2022-08-17T18:24:10.643Z,5.95
2022-08-17T18:26:57.626Z,4.85
2022-08-17T18:29:32.446Z,5.93
2022-08-17T18:32:31.241Z,6.18
2022-08-17T18:35:09.234Z,5.78
2022-08-17T18:38:12.943Z,7.53
2022-08-17T18:40:58.024Z,5.18
2022-08-17T18:43:53.368Z,7.10
2022-08-17T18:46:35.307Z,8.57
2022-08-17T18:49:28.611Z,6.43
2022-08-17T18:52:32.361Z,7.15
2022-08-17T18:55:13.106Z,8.18
2022-08-17T18:57:52.862Z,5.53
2022-08-17T19:00:40.319Z,8.15
2022-08-17T19:03:18.514Z,6.20
2022-08-17T19:05:57.792Z,6.35
2022-08-17T19:08:37.380Z,5.82
2022-08-17T19:11:21.067Z,9.80
2022-08-17T19:14:03.815Z,7.20
2022-08-17T19:16:49.459Z,6.03
2022-08-17T19:19:50.270Z,8.60
2022-08-17T19:22:30.834Z,5.65
2022-08-17T19:25:19.484Z,6.63
2022-08-17T19:28:25.792Z,7.13
2022-08-17T19:31:03.655Z,8.38
2022-08-17T19:33:39.625Z,8.90
2022-08-17T19:36:21.580Z,6.10
2022-08-17T19:39:22.754Z,9.23
2022-08-17T19:42:28.941Z,4.95
2022-08-17T19:45:33.665Z,10.25
2022-08-17T19:48:40.238Z,6.68
2022-08-17T19:51:57.569Z,9.13
2022-08-17T19:54:38.318Z,9.95
2022-08-17T19:57:33.981Z,8.20
2022-08-17T20:00:16.343Z,7.35
2022-08-17T20:03:16.408Z,7.72
2022-08-17T20:06:12.446Z,6.18
2022-08-17T20:09:19.024Z,7.85
2022-08-17T20:12:09.715Z,10.43
2022-08-17T20:14:55.304Z,7.75
2022-08-17T20:17:37.975Z,9.57
2022-08-17T20:20:27.062Z,8.30
2022-08-17T20:23:15.098Z,6.38
2022-08-17T20:26:27.092Z,10.15
2022-08-17T20:29:37.570Z,9.52
2022-08-17T20:32:25.307Z,7.10
2022-08-17T20:35:22.744Z,9.45
2022-08-17T20:38:04.201Z,9.77
2022-08-17T20:41:01.188Z,7.43
2022-08-17T20:43:33.144Z,9.27
2022-08-17T20:46:22.961Z,8.93
2022-08-17T20:49:27.930Z,12.50
2022-08-17T20:52:09.446Z,7.80
2022-08-17T20:54:54.679Z,10.43
2022-08-17T20:57:33.140Z,10.75
2022-08-17T21:00:31.292Z,9.23
2022-08-17T21:03:24.272Z,7.65
2022-08-17T21:06:17.190Z,8.70
2022-08-17T21:09:16.260Z,7.05
2022-08-17T21:12:05.248Z,9.30
2022-08-17T21:15:04.143Z,7.03
2022-08-17T21:18:06.814Z,8.48
2022-08-17T21:21:17.723Z,7.72
2022-08-17T21:24:32.437Z,8.05
2022-08-17T21:27:57.139Z,11.05
2022-08-17T21:30:29.390Z,10.43
2022-08-17T21:33:27.371Z,16.55
2022-08-17T21:36:16.976Z,11.88
2022-08-17T21:39:02.122Z,9.38
2022-08-17T21:41:53.140Z,14.70
2022-08-17T21:44:37.232Z,14.63
2022-08-17T21:47:29.449Z,12.48
2022-08-17T21:50:21.741Z,12.88
2022-08-17T21:53:00.998Z,10.52
2022-08-17T21:55:36.197Z,12.43
2022-08-17T21:58:33.994Z,15.90
2022-08-17T22:01:21.875Z,9.60
2022-08-17T22:04:21.027Z,11.80
2022-08-17T22:06:57.660Z,10.90
2022-08-17T22:09:50.214Z,9.13
2022-08-17T22:12:24.476Z,10.30
2022-08-17T22:14:57.852Z,15.30
2022-08-17T22:17:38.494Z,15.77
2022-08-17T22:20:20.455Z,12.63
2022-08-17T22:23:13.724Z,10.65
2022-08-17T22:26:06.161Z,13.85
2022-08-17T22:28:50.797Z,12.38
2022-08-17T22:31:29.938Z,11.05
2022-08-17T22:34:11.021Z,11.30
2022-08-17T22:36:43.144Z,12.43
2022-08-17T22:39:15.015Z,15.93
2022-08-17T22:41:57.205Z,15.43
2022-08-17T22:44:48.152Z,13.57
2022-08-17T22:47:29.481Z,11.98
2022-08-17T22:50:05.673Z,11.55
2022-08-17T22:53:03.117Z,14.52
2022-08-17T22:55:53.478Z,11.48
2022-08-17T23:01:34.870Z,13.68
2022-08-17T23:04:35.818Z,12.60
2022-08-17T23:12:00.119Z,12.82
2022-08-17T23:33:58.179Z,10.98
2022-08-17T23:36:31.731Z,13.50
2022-08-17T23:39:06.566Z,12.68
2022-08-17T23:41:40.158Z,11.10
2022-08-17T23:44:13.847Z,15.90
2022-08-17T23:46:45.798Z,15.43
2022-08-17T23:49:19.175Z,13.90
2022-08-17T23:51:53.706Z,11.00
2022-08-17T23:54:43.752Z,13.68
2022-08-17T23:57:20.589Z,14.88
